createdAt,value
2023-07-19T00:02:24.960Z,90.73
2023-07-19T00:05:28.363Z,92.52
2023-07-19T00:08:32.417Z,92.80
2023-07-19T00:11:44.737Z,93.53
2023-07-19T00:14:47.147Z,94.02
2023-07-19T00:17:51.707Z,93.88
2023-07-19T00:20:55.263Z,94.54
2023-07-19T00:24:02.227Z,96.42
2023-07-19T00:27:08.151Z,96.43
2023-07-19T00:30:11.705Z,97.51
2023-07-19T00:33:14.366Z,96.33
2023-07-19T00:36:17.428Z,98.68
2023-07-19T00:39:20.311Z,97.93
2023-07-19T00:42:23.417Z,98.51
2023-07-19T00:45:26.963Z,98.65
2023-07-19T00:48:30.020Z,97.25
2023-07-19T00:51:34.325Z,98.05
2023-07-19T00:54:37.978Z,98.27
2023-07-19T00:57:44.280Z,95.94
2023-07-19T01:00:48.364Z,96.34
2023-07-19T01:03:51.241Z,96.10
2023-07-19T01:06:54.418Z,97.55
2023-07-19T01:09:57.225Z,98.03
2023-07-19T01:13:07.438Z,95.66
2023-07-19T01:16:11.236Z,97.56
2023-07-19T01:19:16.361Z,98.20
2023-07-19T01:22:19.222Z,100.00
2023-07-19T01:25:22.304Z,98.75
2023-07-19T01:28:25.025Z,98.52
2023-07-19T01:31:27.996Z,98.23
2023-07-19T01:34:31.310Z,99.17
2023-07-19T01:37:35.056Z,100.00
2023-07-19T01:40:39.768Z,98.96
2023-07-19T01:43:43.507Z,100.00
2023-07-19T01:46:45.995Z,98.75
2023-07-19T01:49:48.826Z,99.01
2023-07-19T01:52:51.476Z,99.31
2023-07-19T01:55:56.283Z,98.85
2023-07-19T01:58:58.915Z,99.33
2023-07-19T02:02:03.250Z,99.17
2023-07-19T02:05:06.479Z,96.04
2023-07-19T02:08:09.491Z,97.75
2023-07-19T02:11:12.862Z,99.24
2023-07-19T02:14:20.128Z,98.99
2023-07-19T02:17:26.637Z,97.47
2023-07-19T02:20:30.105Z,98.78
2023-07-19T02:23:34.656Z,99.72
2023-07-19T02:26:37.397Z,96.64
2023-07-19T02:29:39.962Z,96.14
2023-07-19T02:32:47.228Z,96.65
2023-07-19T02:35:56.619Z,96.67
2023-07-19T02:39:01.667Z,99.12
2023-07-19T02:42:05.264Z,97.64
2023-07-19T02:45:08.678Z,97.95
2023-07-19T02:48:11.123Z,97.10
2023-07-19T02:51:13.934Z,98.52
2023-07-19T02:54:19.747Z,100.00
2023-07-19T02:57:22.573Z,98.88
2023-07-19T03:00:25.855Z,100.00
2023-07-19T03:03:30.373Z,100.00
2023-07-19T03:06:33.014Z,99.18
2023-07-19T03:09:36.129Z,97.39
2023-07-19T03:12:38.997Z,98.35
2023-07-19T03:15:47.315Z,97.68
2023-07-19T03:18:49.880Z,99.35
2023-07-19T03:21:52.845Z,98.89
2023-07-19T03:24:55.478Z,100.00
2023-07-19T03:27:59.183Z,100.00
2023-07-19T03:31:02.561Z,100.00
2023-07-19T03:34:08.042Z,100.00
2023-07-19T03:37:10.949Z,100.00
2023-07-19T03:40:14.434Z,100.00
2023-07-19T03:43:19.243Z,100.00
2023-07-19T03:46:23.755Z,100.00
2023-07-19T03:49:26.317Z,100.00
2023-07-19T03:52:29.370Z,100.00
2023-07-19T03:55:33.961Z,100.00
2023-07-19T03:58:49.954Z,100.00
2023-07-19T04:01:52.986Z,100.00
2023-07-19T04:04:56.373Z,100.00
2023-07-19T04:08:02.699Z,99.98
2023-07-19T04:11:06.991Z,100.00
2023-07-19T04:14:09.758Z,98.67
2023-07-19T04:17:13.474Z,99.04
2023-07-19T04:20:16.045Z,97.70
2023-07-19T04:23:19.096Z,97.71
2023-07-19T04:26:22.741Z,98.01
2023-07-19T04:29:25.881Z,97.38
2023-07-19T04:32:34.345Z,98.26
2023-07-19T04:35:37.478Z,97.42
2023-07-19T04:38:40.914Z,98.44
2023-07-19T04:41:46.261Z,98.37
2023-07-19T04:44:51.538Z,97.13
2023-07-19T04:47:56.320Z,97.02
2023-07-19T04:51:00.111Z,98.12
2023-07-19T04:54:03.416Z,96.96
2023-07-19T04:57:08.387Z,96.73
2023-07-19T05:00:13.278Z,95.78
2023-07-19T05:03:16.245Z,93.43
2023-07-19T05:06:18.878Z,92.69
2023-07-19T05:09:22.778Z,91.92
2023-07-19T05:12:26.001Z,92.53
2023-07-19T05:15:28.785Z,92.95
2023-07-19T05:18:35.371Z,89.03
2023-07-19T05:21:38.538Z,87.76
2023-07-19T05:24:44.748Z,89.24
2023-07-19T05:27:48.021Z,89.17
2023-07-19T05:30:51.103Z,87.23
2023-07-19T05:33:53.689Z,88.29
2023-07-19T05:36:56.941Z,89.98
2023-07-19T05:40:00.353Z,87.45
2023-07-19T05:43:04.707Z,87.58
2023-07-19T05:46:09.401Z,88.30
2023-07-19T05:49:12.748Z,86.48
2023-07-19T05:52:15.233Z,87.32
2023-07-19T05:55:18.435Z,87.24
2023-07-19T05:58:21.712Z,84.99
2023-07-19T06:01:30.564Z,84.72
2023-07-19T06:04:35.352Z,84.60
2023-07-19T06:07:38.259Z,82.46
2023-07-19T06:10:41.916Z,81.32
2023-07-19T06:13:51.410Z,78.13
2023-07-19T06:16:57.606Z,79.61
2023-07-19T06:20:01.489Z,79.16
2023-07-19T06:23:04.878Z,75.08
2023-07-19T06:26:12.946Z,72.49
2023-07-19T06:29:15.883Z,74.45
2023-07-19T06:32:19.325Z,74.27
2023-07-19T06:35:22.272Z,72.22
2023-07-19T06:38:27.030Z,69.20
2023-07-19T06:41:29.652Z,70.73
2023-07-19T06:44:33.342Z,68.00
2023-07-19T06:47:39.881Z,67.43
2023-07-19T06:50:42.595Z,67.21
2023-07-19T06:53:45.052Z,69.43
2023-07-19T06:56:48.126Z,69.18
2023-07-19T06:59:51.180Z,65.41
2023-07-19T07:02:54.018Z,67.69
2023-07-19T07:05:56.713Z,61.80
2023-07-19T07:09:00.241Z,61.30
2023-07-19T07:12:03.123Z,56.09
2023-07-19T07:15:06.391Z,54.81
2023-07-19T07:18:08.863Z,57.53
2023-07-19T07:21:12.517Z,57.25
2023-07-19T07:24:16.493Z,59.28
2023-07-19T07:27:19.418Z,54.24
2023-07-19T07:30:21.898Z,54.40
2023-07-19T07:33:24.570Z,57.94
2023-07-19T07:36:27.127Z,57.13
2023-07-19T07:39:31.490Z,56.12
2023-07-19T07:42:34.328Z,55.95
2023-07-19T07:45:37.805Z,60.07
2023-07-19T07:48:40.672Z,53.36
2023-07-19T07:51:43.963Z,54.07
2023-07-19T07:54:46.439Z,51.82
2023-07-19T07:57:49.290Z,49.68
2023-07-19T08:00:55.599Z,52.53
2023-07-19T08:03:59.153Z,57.78
2023-07-19T08:07:02.067Z,53.63
2023-07-19T08:10:05.032Z,56.58
2023-07-19T08:13:09.545Z,59.42
2023-07-19T08:16:12.343Z,58.98
2023-07-19T08:19:14.864Z,55.59
2023-07-19T08:22:28.335Z,53.73
2023-07-19T08:25:31.201Z,57.54
2023-07-19T08:28:34.349Z,52.11
2023-07-19T08:31:37.796Z,53.52
2023-07-19T08:34:40.728Z,52.35
2023-07-19T08:37:44.636Z,51.50
2023-07-19T08:41:07.245Z,56.19
2023-07-19T08:44:12.719Z,49.53
2023-07-19T08:47:15.972Z,51.93
2023-07-19T08:50:19.621Z,55.66
2023-07-19T08:53:24.812Z,51.01
2023-07-19T08:56:27.906Z,46.46
2023-07-19T08:59:30.533Z,52.28
2023-07-19T09:02:33.157Z,50.68
2023-07-19T09:05:36.748Z,48.65
2023-07-19T09:08:42.482Z,46.48
2023-07-19T09:11:50.971Z,48.37
2023-07-19T09:14:53.758Z,45.71
2023-07-19T09:17:56.603Z,45.56
2023-07-19T09:20:59.967Z,45.72
2023-07-19T09:24:07.093Z,50.93
2023-07-19T09:27:10.307Z,49.21
2023-07-19T09:30:15.319Z,45.40
2023-07-19T09:33:19.050Z,47.47
2023-07-19T09:36:23.018Z,45.78
2023-07-19T09:39:26.128Z,48.10
2023-07-19T09:42:32.214Z,47.17
2023-07-19T09:45:34.943Z,46.63
2023-07-19T09:48:38.119Z,45.38
2023-07-19T09:51:45.320Z,42.60
2023-07-19T09:54:48.546Z,46.35
2023-07-19T09:57:53.079Z,46.16
2023-07-19T10:00:56.173Z,47.31
2023-07-19T10:04:04.881Z,49.96
2023-07-19T10:07:14.010Z,49.01
2023-07-19T10:10:16.582Z,48.05
2023-07-19T10:13:19.977Z,45.68
2023-07-19T10:16:36.113Z,47.95
2023-07-19T10:19:39.771Z,45.76
2023-07-19T10:22:58.230Z,45.96
2023-07-19T10:26:07.786Z,47.48
2023-07-19T10:29:10.467Z,45.32
2023-07-19T10:32:13.871Z,45.25
2023-07-19T10:35:31.654Z,47.24
2023-07-19T10:38:35.162Z,43.25
2023-07-19T10:41:38.386Z,42.95
2023-07-19T10:44:42.010Z,42.63
2023-07-19T10:47:44.769Z,42.54
2023-07-19T10:50:48.223Z,42.51
2023-07-19T10:53:58.533Z,40.02
2023-07-19T10:57:02.858Z,39.86
2023-07-19T11:00:16.397Z,39.06
2023-07-19T11:03:24.740Z,41.52
2023-07-19T11:06:27.520Z,43.83
2023-07-19T11:09:30.362Z,47.20
2023-07-19T11:12:33.598Z,46.50
2023-07-19T11:15:36.167Z,40.19
2023-07-19T11:18:42.174Z,42.48
2023-07-19T11:21:45.828Z,42.93
2023-07-19T11:24:51.048Z,40.98
2023-07-19T11:27:54.527Z,41.66
2023-07-19T11:30:57.055Z,45.34
2023-07-19T11:34:06.433Z,46.92
2023-07-19T11:37:17.033Z,49.33
2023-07-19T11:40:20.703Z,51.28
2023-07-19T11:43:28.549Z,45.39
2023-07-19T11:46:31.630Z,48.74
2023-07-19T11:49:34.329Z,45.27
2023-07-19T11:53:04.517Z,48.84
2023-07-19T11:56:11.869Z,41.17
2023-07-19T11:59:15.378Z,41.42
2023-07-19T12:02:17.934Z,44.89
2023-07-19T12:05:25.233Z,45.14
2023-07-19T12:08:28.621Z,46.66
2023-07-19T12:11:31.258Z,44.12
2023-07-19T12:14:34.458Z,42.90
2023-07-19T12:17:37.626Z,46.94
2023-07-19T12:20:40.444Z,44.46
2023-07-19T12:26:57.213Z,43.67
2023-07-19T12:30:03.655Z,44.00
2023-07-19T12:33:07.004Z,41.15
2023-07-19T12:36:11.116Z,43.05
2023-07-19T12:39:15.158Z,43.33
2023-07-19T12:42:18.526Z,40.62
2023-07-19T12:45:21.193Z,45.23
2023-07-19T12:48:23.785Z,46.90
2023-07-19T12:51:26.505Z,46.78
2023-07-19T12:54:29.630Z,45.10
2023-07-19T12:57:32.575Z,41.62
2023-07-19T13:00:36.390Z,43.35
2023-07-19T13:03:39.653Z,46.24
2023-07-19T13:06:52.480Z,44.59
2023-07-19T13:09:55.892Z,47.45
2023-07-19T13:12:58.534Z,49.50
2023-07-19T13:16:02.562Z,46.58
2023-07-19T13:19:05.832Z,48.15
2023-07-19T13:22:12.882Z,46.75
2023-07-19T13:25:16.326Z,50.20
2023-07-19T13:28:19.002Z,49.81
2023-07-19T13:31:21.703Z,48.33
2023-07-19T13:34:24.413Z,47.20
2023-07-19T13:38:06.769Z,47.79
2023-07-19T13:40:50.088Z,48.56
2023-07-19T13:43:58.368Z,52.17
2023-07-19T13:47:01.983Z,50.71
2023-07-19T13:50:05.529Z,51.18
2023-07-19T13:53:08.885Z,50.37
2023-07-19T13:56:12.495Z,53.02
2023-07-19T13:59:15.370Z,54.20
2023-07-19T14:02:19.121Z,52.36
2023-07-19T14:05:29.196Z,49.32
2023-07-19T14:08:32.223Z,49.23
2023-07-19T14:11:35.280Z,48.31
2023-07-19T14:17:45.872Z,48.86
2023-07-19T14:20:51.551Z,49.79
2023-07-19T14:23:54.714Z,46.97
2023-07-19T14:26:58.065Z,49.26
2023-07-19T14:30:00.469Z,47.36
2023-07-19T14:33:04.937Z,48.91
2023-07-19T14:36:07.537Z,48.83
2023-07-19T14:39:10.880Z,49.69
2023-07-19T14:42:15.244Z,49.60
2023-07-19T14:45:19.937Z,51.88
2023-07-19T14:48:25.227Z,52.54
2023-07-19T14:51:28.106Z,51.34
2023-07-19T14:54:31.035Z,51.28
2023-07-19T14:57:37.470Z,50.76
2023-07-19T15:00:40.606Z,51.93
2023-07-19T15:03:44.169Z,51.10
2023-07-19T15:06:47.771Z,51.04
2023-07-19T15:09:50.752Z,51.40
2023-07-19T15:12:53.408Z,50.69
2023-07-19T15:15:57.849Z,50.87
2023-07-19T15:22:07.936Z,50.49
2023-07-19T15:25:10.594Z,51.80
2023-07-19T15:28:29.008Z,52.14
2023-07-19T15:31:33.655Z,49.99
2023-07-19T15:34:37.210Z,50.23
2023-07-19T15:37:39.940Z,49.60
2023-07-19T15:40:42.696Z,51.75
2023-07-19T15:43:45.863Z,50.27
2023-07-19T15:46:50.187Z,53.21
2023-07-19T15:49:52.946Z,53.71
2023-07-19T15:52:55.640Z,50.69
2023-07-19T15:55:58.352Z,52.59
2023-07-19T15:59:01.910Z,51.97
2023-07-19T16:02:08.047Z,51.99
2023-07-19T16:05:11.380Z,51.70
2023-07-19T16:08:14.248Z,52.09
2023-07-19T16:11:16.995Z,49.29
2023-07-19T16:14:20.185Z,50.73
2023-07-19T16:17:22.858Z,48.74
2023-07-19T16:20:25.917Z,50.67
2023-07-19T16:23:28.818Z,51.83
2023-07-19T16:26:31.633Z,52.24
2023-07-19T16:29:34.688Z,52.49
2023-07-19T16:32:37.581Z,54.82
2023-07-19T16:35:40.812Z,52.52
2023-07-19T16:38:46.490Z,51.13
2023-07-19T16:41:49.945Z,50.80
2023-07-19T16:44:52.628Z,51.49
2023-07-19T16:47:59.830Z,52.43
2023-07-19T16:51:03.024Z,53.94
2023-07-19T16:54:06.076Z,53.51
2023-07-19T16:57:13.019Z,54.59
2023-07-19T17:00:17.996Z,53.73
2023-07-19T17:03:21.206Z,54.59
2023-07-19T17:06:27.198Z,54.56
2023-07-19T17:09:29.635Z,53.92
2023-07-19T17:12:36.242Z,54.61
2023-07-19T17:15:38.777Z,55.58
2023-07-19T17:18:44.555Z,56.60
2023-07-19T17:21:48.522Z,58.46
2023-07-19T17:24:51.582Z,57.47
2023-07-19T17:27:54.246Z,59.42
2023-07-19T17:30:57.557Z,60.35
2023-07-19T17:34:01.307Z,59.18
2023-07-19T17:37:04.542Z,59.48
2023-07-19T17:40:10.366Z,60.32
2023-07-19T17:43:13.629Z,59.89
2023-07-19T17:46:20.187Z,61.90
2023-07-19T17:49:29.177Z,65.57
2023-07-19T17:52:32.878Z,65.49
2023-07-19T17:55:35.498Z,64.21
2023-07-19T17:58:38.841Z,64.48
2023-07-19T18:01:42.269Z,66.85
2023-07-19T18:04:46.648Z,68.02
2023-07-19T18:07:49.616Z,68.91
2023-07-19T18:10:52.535Z,69.94
2023-07-19T18:13:56.092Z,70.13
2023-07-19T18:16:59.209Z,70.39
2023-07-19T18:20:01.874Z,71.74
2023-07-19T18:23:04.440Z,73.15
2023-07-19T18:26:07.478Z,73.62
2023-07-19T18:29:12.646Z,72.77
2023-07-19T18:32:16.244Z,73.03
2023-07-19T18:35:21.230Z,72.52
2023-07-19T18:38:24.198Z,72.86
2023-07-19T18:41:26.876Z,71.83
2023-07-19T18:44:34.221Z,71.79
2023-07-19T18:47:37.327Z,73.94
2023-07-19T18:50:40.477Z,73.87
2023-07-19T18:53:48.794Z,72.09
2023-07-19T18:56:52.187Z,73.10
2023-07-19T18:59:57.477Z,72.33
2023-07-19T19:03:00.630Z,71.03
2023-07-19T19:06:04.345Z,71.71
2023-07-19T19:09:08.143Z,75.13
2023-07-19T19:12:11.778Z,79.12
2023-07-19T19:15:15.207Z,82.69
2023-07-19T19:18:20.477Z,83.85
2023-07-19T19:21:24.781Z,85.16
2023-07-19T19:24:27.842Z,84.81
2023-07-19T19:27:30.553Z,85.23
2023-07-19T19:30:33.918Z,83.04
2023-07-19T19:33:40.922Z,84.00
2023-07-19T19:36:44.014Z,82.63
2023-07-19T19:39:50.826Z,82.81
2023-07-19T19:42:57.246Z,82.32
2023-07-19T19:46:01.593Z,83.28
2023-07-19T19:49:04.495Z,84.09
2023-07-19T19:52:08.691Z,83.52
2023-07-19T19:55:12.573Z,82.77
2023-07-19T19:58:15.307Z,84.26
2023-07-19T20:01:17.987Z,83.84
2023-07-19T20:04:21.234Z,85.31
2023-07-19T20:07:24.026Z,85.81
2023-07-19T20:10:26.965Z,86.84
2023-07-19T20:13:29.408Z,86.16
2023-07-19T20:16:40.345Z,87.72
2023-07-19T20:19:53.217Z,90.43
2023-07-19T20:22:58.130Z,89.77
2023-07-19T20:26:14.203Z,88.91
2023-07-19T20:38:43.039Z,88.86
2023-07-19T20:41:46.488Z,89.89
2023-07-19T20:44:49.772Z,90.27
2023-07-19T20:47:53.072Z,91.25
2023-07-19T20:50:56.072Z,91.19
2023-07-19T20:53:59.149Z,90.58
2023-07-19T20:57:02.008Z,91.07
2023-07-19T21:00:06.297Z,89.56
2023-07-19T21:03:09.189Z,90.98
2023-07-19T21:06:12.374Z,90.29
2023-07-19T21:09:15.344Z,89.99
2023-07-19T21:12:19.133Z,90.97
2023-07-19T21:15:21.976Z,92.71
2023-07-19T21:18:24.992Z,93.27
2023-07-19T21:21:28.493Z,96.43
2023-07-19T21:24:31.229Z,95.49
2023-07-19T21:27:34.175Z,96.28
2023-07-19T21:30:37.063Z,97.02
2023-07-19T21:33:39.977Z,96.01
2023-07-19T21:36:43.056Z,95.85
2023-07-19T21:39:45.502Z,96.25
2023-07-19T21:42:52.337Z,96.32
2023-07-19T21:45:54.868Z,96.75
2023-07-19T21:48:57.937Z,97.50
2023-07-19T21:52:01.170Z,98.06
2023-07-19T21:55:04.146Z,97.39
2023-07-19T21:58:07.888Z,98.37
2023-07-19T22:01:11.280Z,99.86
2023-07-19T22:04:14.168Z,99.72
2023-07-19T22:07:18.071Z,100.00
2023-07-19T22:10:23.070Z,100.00
2023-07-19T22:13:27.336Z,100.00
2023-07-19T22:16:30.580Z,100.00
2023-07-19T22:19:33.947Z,100.00
2023-07-19T22:22:36.951Z,100.00
2023-07-19T22:25:39.642Z,100.00
2023-07-19T22:28:42.360Z,100.00
2023-07-19T22:31:45.383Z,100.00
2023-07-19T22:34:50.609Z,100.00
2023-07-19T22:37:56.260Z,100.00
2023-07-19T22:40:59.038Z,100.00
2023-07-19T22:44:02.100Z,100.00
2023-07-19T22:47:05.079Z,100.00
2023-07-19T22:50:09.244Z,100.00
2023-07-19T22:53:15.387Z,100.00
2023-07-19T22:56:18.141Z,100.00
2023-07-19T22:59:23.260Z,100.00
2023-07-19T23:02:26.274Z,100.00
2023-07-19T23:05:29.190Z,100.00
2023-07-19T23:08:32.342Z,100.00
2023-07-19T23:11:39.607Z,100.00
2023-07-19T23:14:42.930Z,100.00
2023-07-19T23:17:45.741Z,100.00
2023-07-19T23:20:51.097Z,100.00
2023-07-19T23:23:54.041Z,100.00
2023-07-19T23:26:56.803Z,100.00
2023-07-19T23:29:59.578Z,100.00
2023-07-19T23:33:02.639Z,100.00
2023-07-19T23:36:09.751Z,100.00
2023-07-19T23:39:12.882Z,100.00
2023-07-19T23:42:15.376Z,100.00
2023-07-19T23:45:18.850Z,100.00
2023-07-19T23:48:24.487Z,100.00
2023-07-19T23:51:27.237Z,100.00
2023-07-19T23:54:30.195Z,100.00
2023-07-19T23:57:41.287Z,100.00
